Time;durP1;ratioP1;P1;durP2;ratioP2;P2;SDS_P1;SDS_P2;PMS_P1;PMS_P2;Temp;Humidity;BMP_temperature;BMP_pressure;BME280_temperature;BME280_humidity;BME280_pressure;Samples;Min_cycle;Max_cycle;Signal;HPM_P1;HPM_P2
2021/06/28 00:00:58;;;;;;;3.17;2.10;;;21.70;99.90;;;;;;5049928;28;20547;-66
2021/06/28 00:03:25;;;;;;;2.70;2.23;;;21.60;99.90;;;;;;5050394;28;20530;-67
2021/06/28 00:05:52;;;;;;;3.07;2.37;;;21.50;99.90;;;;;;5050612;28;20472;-66
2021/06/28 00:08:18;;;;;;;3.00;2.20;;;21.40;99.90;;;;;;5050487;28;20535;-67
2021/06/28 00:10:47;;;;;;;3.17;2.20;;;21.40;99.90;;;;;;5049572;28;20450;-66
2021/06/28 00:13:14;;;;;;;3.50;2.23;;;21.20;99.90;;;;;;5050335;28;20571;-66
2021/06/28 00:15:40;;;;;;;3.93;2.50;;;21.10;99.90;;;;;;5050666;28;20456;-66
2021/06/28 00:18:08;;;;;;;3.93;2.80;;;21.00;99.90;;;;;;5050183;28;20456;-66
2021/06/28 00:20:36;;;;;;;3.30;2.50;;;20.90;99.90;;;;;;5049844;28;20444;-66
2021/06/28 00:23:04;;;;;;;3.97;2.43;;;20.60;99.90;;;;;;5050584;28;20435;-66
2021/06/28 00:25:32;;;;;;;4.37;2.97;;;20.30;99.90;;;;;;5050600;28;20801;-66
2021/06/28 00:28:00;;;;;;;3.43;2.53;;;20.10;99.90;;;;;;5049974;28;20551;-67
2021/06/28 00:30:32;;;;;;;3.77;2.87;;;20.00;99.90;;;;;;5049176;28;20992;-66
2021/06/28 00:32:59;;;;;;;3.60;2.80;;;19.80;99.90;;;;;;5050632;28;20499;-66
2021/06/28 00:35:26;;;;;;;4.60;2.90;;;19.80;99.90;;;;;;5050337;28;20447;-66
2021/06/28 00:37:53;;;;;;;5.13;3.00;;;19.70;99.90;;;;;;5049751;28;20456;-66
2021/06/28 00:40:21;;;;;;;3.67;2.70;;;19.60;99.90;;;;;;5048826;28;20936;-66
2021/06/28 00:42:48;;;;;;;5.90;3.00;;;19.60;99.90;;;;;;5050331;28;20472;-66
2021/06/28 00:45:19;;;;;;;3.67;2.77;;;19.60;99.90;;;;;;5050258;28;20443;-66
2021/06/28 00:47:46;;;;;;;4.17;3.10;;;19.50;99.90;;;;;;5049639;28;20464;-66
2021/06/28 00:50:14;;;;;;;4.03;3.57;;;19.50;99.90;;;;;;5049357;28;20524;-66
2021/06/28 00:52:41;;;;;;;4.57;3.13;;;19.40;99.90;;;;;;5050646;28;20483;-66
2021/06/28 00:55:10;;;;;;;3.30;2.97;;;19.40;99.90;;;;;;5054038;28;20436;-66
2021/06/28 00:57:37;;;;;;;3.93;2.90;;;19.40;99.90;;;;;;5053626;28;20440;-70
2021/06/28 01:00:08;;;;;;;3.70;2.50;;;19.40;99.90;;;;;;5052981;28;20452;-66
2021/06/28 01:02:37;;;;;;;3.67;2.90;;;19.30;99.90;;;;;;5053751;28;20444;-66
2021/06/28 01:05:06;;;;;;;4.63;3.30;;;19.40;99.90;;;;;;5053159;28;20874;-66
2021/06/28 01:07:33;;;;;;;4.47;3.63;;;19.40;99.90;;;;;;5053214;28;20457;-67
2021/06/28 01:10:00;;;;;;;7.00;2.80;;;19.30;99.90;;;;;;5052984;28;20921;-66
2021/06/28 01:12:27;;;;;;;3.03;2.53;;;19.40;99.90;;;;;;5053491;28;20440;-66
2021/06/28 01:14:55;;;;;;;4.20;3.03;;;19.30;99.90;;;;;;5053798;28;20450;-66
2021/06/28 01:17:23;;;;;;;4.90;3.30;;;19.30;99.90;;;;;;5053495;28;20435;-66
2021/06/28 01:19:57;;;;;;;4.53;3.20;;;19.30;99.90;;;;;;5052833;28;20451;-66
2021/06/28 01:22:26;;;;;;;4.33;3.10;;;19.30;99.90;;;;;;5053672;28;20434;-66
2021/06/28 01:24:56;;;;;;;5.53;3.47;;;19.20;99.90;;;;;;5053821;28;20448;-67
2021/06/28 01:27:25;;;;;;;4.50;3.20;;;19.20;99.90;;;;;;5053625;28;20984;-66
2021/06/28 01:29:53;;;;;;;6.53;3.80;;;19.10;99.90;;;;;;5052647;28;20530;-66
2021/06/28 01:32:20;;;;;;;7.73;4.73;;;19.10;99.90;;;;;;5053602;28;20534;-66
2021/06/28 01:34:47;;;;;;;7.53;3.60;;;19.00;99.90;;;;;;5052998;28;20506;-66
2021/06/28 01:37:21;;;;;;;7.03;4.00;;;19.00;99.90;;;;;;5053050;28;20454;-66
2021/06/28 01:39:49;;;;;;;5.33;3.47;;;19.00;99.90;;;;;;5052968;28;20426;-67
2021/06/28 01:42:18;;;;;;;4.77;4.27;;;19.00;99.90;;;;;;5053573;28;20440;-66
2021/06/28 01:44:45;;;;;;;5.03;4.00;;;19.00;99.90;;;;;;5053451;28;20431;-68
2021/06/28 01:47:11;;;;;;;4.87;3.87;;;19.00;99.90;;;;;;5052778;28;20463;-66
2021/06/28 01:49:39;;;;;;;5.33;3.60;;;18.90;99.90;;;;;;5052334;28;20459;-66
2021/06/28 01:52:06;;;;;;;4.43;3.60;;;18.90;99.90;;;;;;5053267;28;20540;-66
2021/06/28 01:54:34;;;;;;;3.80;3.40;;;18.90;99.90;;;;;;5053213;28;20476;-66
2021/06/28 01:57:01;;;;;;;4.63;3.27;;;19.00;99.90;;;;;;5052395;28;20986;-66
2021/06/28 01:59:31;;;;;;;4.70;3.73;;;19.00;99.90;;;;;;5051850;28;20475;-66
2021/06/28 02:01:58;;;;;;;5.30;3.57;;;19.00;99.90;;;;;;5052791;28;20527;-66
2021/06/28 02:04:26;;;;;;;4.60;4.00;;;19.00;99.90;;;;;;5052046;28;20452;-66
2021/06/28 02:06:53;;;;;;;6.80;4.13;;;18.90;99.90;;;;;;5052515;28;20436;-66
2021/06/28 02:09:20;;;;;;;4.57;4.03;;;19.00;99.90;;;;;;5052130;28;20550;-66
2021/06/28 02:11:47;;;;;;;4.57;3.30;;;19.00;99.90;;;;;;5052900;28;20806;-66
2021/06/28 02:14:14;;;;;;;3.93;3.40;;;19.00;99.90;;;;;;5052823;28;20484;-66
2021/06/28 02:16:44;;;;;;;3.90;3.30;;;19.10;99.90;;;;;;5052439;28;20897;-66
2021/06/28 02:19:12;;;;;;;4.77;3.60;;;19.10;99.90;;;;;;5052343;28;20547;-67
2021/06/28 02:21:40;;;;;;;5.67;3.00;;;19.10;99.90;;;;;;5052467;28;20558;-66
2021/06/28 02:24:07;;;;;;;4.67;4.10;;;19.10;99.90;;;;;;5052757;28;20442;-67
2021/06/28 02:26:34;;;;;;;5.03;3.80;;;19.10;99.90;;;;;;5051968;28;21168;-66
2021/06/28 02:29:02;;;;;;;5.47;3.70;;;19.10;99.90;;;;;;5051222;28;20552;-66
2021/06/28 02:31:29;;;;;;;4.80;4.30;;;19.00;99.90;;;;;;5052219;28;20937;-66
2021/06/28 02:33:58;;;;;;;4.03;3.53;;;19.00;99.90;;;;;;5052099;28;20475;-66
2021/06/28 02:36:27;;;;;;;4.40;3.80;;;19.00;99.90;;;;;;5051795;28;20810;-67
2021/06/28 02:38:56;;;;;;;5.80;4.37;;;19.00;99.90;;;;;;5051922;28;20474;-67
2021/06/28 02:41:24;;;;;;;6.70;3.83;;;19.00;99.90;;;;;;5051881;28;20470;-66
2021/06/28 02:43:53;;;;;;;4.23;3.63;;;19.00;99.90;;;;;;5051702;28;20555;-67
2021/06/28 02:46:21;;;;;;;4.50;3.87;;;19.00;99.90;;;;;;5051801;28;20519;-66
2021/06/28 02:48:48;;;;;;;5.00;3.97;;;19.00;99.90;;;;;;5052479;28;21109;-66
2021/06/28 02:51:18;;;;;;;5.50;4.00;;;19.00;99.90;;;;;;5051201;28;20519;-66
2021/06/28 02:53:45;;;;;;;5.57;4.13;;;19.10;99.90;;;;;;5051512;28;20578;-66
2021/06/28 02:56:15;;;;;;;4.00;3.60;;;19.00;99.90;;;;;;5051542;28;20452;-66
2021/06/28 02:58:44;;;;;;;5.20;3.70;;;19.10;99.90;;;;;;5051654;28;20471;-66
2021/06/28 03:01:11;;;;;;;4.27;3.73;;;19.10;99.90;;;;;;5050852;28;20989;-66
2021/06/28 03:03:38;;;;;;;4.50;4.07;;;19.10;99.90;;;;;;5051654;28;20490;-67
2021/06/28 03:06:06;;;;;;;4.30;3.87;;;19.00;99.90;;;;;;5051354;28;20436;-67
2021/06/28 03:08:35;;;;;;;6.27;3.73;;;19.00;99.90;;;;;;5051302;28;20462;-67
2021/06/28 03:11:03;;;;;;;4.80;3.80;;;18.90;99.90;;;;;;5050594;28;20471;-67
2021/06/28 03:13:30;;;;;;;4.50;3.80;;;18.90;99.90;;;;;;5051381;28;20480;-68
2021/06/28 03:15:57;;;;;;;5.10;3.70;;;19.00;99.90;;;;;;5050700;28;20454;-67
2021/06/28 03:18:24;;;;;;;4.30;3.83;;;19.00;99.90;;;;;;5051629;28;20472;-67
2021/06/28 03:20:51;;;;;;;5.53;3.80;;;19.00;99.90;;;;;;5050460;28;20440;-66
2021/06/28 03:23:19;;;;;;;5.27;3.50;;;19.10;99.90;;;;;;5050940;28;20535;-67
2021/06/28 03:25:47;;;;;;;4.77;4.07;;;19.10;99.90;;;;;;5051226;28;21004;-67
2021/06/28 03:28:14;;;;;;;5.70;4.00;;;19.10;99.90;;;;;;5050773;28;20535;-67
2021/06/28 03:30:41;;;;;;;4.50;4.10;;;19.00;99.90;;;;;;5050607;28;20438;-67
2021/06/28 03:33:09;;;;;;;5.37;4.80;;;19.00;99.90;;;;;;5051117;28;20538;-66
2021/06/28 03:35:36;;;;;;;5.10;4.60;;;18.90;99.90;;;;;;5050712;28;20444;-66
2021/06/28 03:38:03;;;;;;;5.13;4.10;;;18.90;99.90;;;;;;5050782;28;20511;-66
2021/06/28 03:40:32;;;;;;;4.57;4.17;;;19.00;99.90;;;;;;5050252;28;20444;-66
2021/06/28 03:43:03;;;;;;;5.27;4.40;;;18.90;99.90;;;;;;5051162;28;20444;-67
2021/06/28 03:45:30;;;;;;;4.73;4.17;;;19.00;99.90;;;;;;5051004;28;20483;-65
2021/06/28 03:47:57;;;;;;;4.50;4.10;;;19.00;99.90;;;;;;5050276;28;20513;-66
2021/06/28 03:50:24;;;;;;;7.63;4.40;;;19.00;99.90;;;;;;5050111;28;20436;-66
2021/06/28 03:52:51;;;;;;;5.53;4.40;;;19.00;99.90;;;;;;5050900;28;20850;-66
2021/06/28 03:55:18;;;;;;;5.70;4.70;;;19.00;99.90;;;;;;5051042;28;20484;-69
2021/06/28 03:57:45;;;;;;;6.13;4.37;;;19.00;99.90;;;;;;5050303;28;20464;-67
2021/06/28 04:00:16;;;;;;;7.53;4.97;;;19.10;99.90;;;;;;5049630;28;20527;-67
2021/06/28 04:02:43;;;;;;;4.90;4.40;;;19.10;99.90;;;;;;5050968;28;20504;-67
2021/06/28 04:05:14;;;;;;;5.47;4.90;;;19.00;99.90;;;;;;5050789;28;20497;-66
2021/06/28 04:07:41;;;;;;;5.87;4.90;;;19.10;99.90;;;;;;5050668;28;20486;-67
2021/06/28 04:10:09;;;;;;;5.40;4.80;;;19.00;99.90;;;;;;5050170;28;20478;-67
2021/06/28 04:12:37;;;;;;;6.67;4.87;;;19.00;99.90;;;;;;5050665;28;20867;-66
2021/06/28 04:15:09;;;;;;;5.43;4.63;;;19.00;99.90;;;;;;5050996;28;20813;-67
2021/06/28 04:17:37;;;;;;;5.23;4.73;;;19.00;99.90;;;;;;5050238;28;20977;-67
2021/06/28 04:20:05;;;;;;;5.70;4.57;;;19.00;99.90;;;;;;5049420;28;20948;-67
2021/06/28 04:22:32;;;;;;;5.83;5.30;;;19.00;99.90;;;;;;5050475;28;20501;-67
2021/06/28 04:25:00;;;;;;;5.77;4.77;;;19.10;99.90;;;;;;5050364;28;20439;-66
2021/06/28 04:27:27;;;;;;;5.67;4.63;;;19.10;99.90;;;;;;5049178;28;20440;-67
2021/06/28 04:29:54;;;;;;;6.63;5.77;;;19.10;99.90;;;;;;5049029;28;20542;-69
2021/06/28 04:32:22;;;;;;;5.70;5.13;;;19.10;99.90;;;;;;5050442;28;20471;-67
2021/06/28 04:34:50;;;;;;;6.83;4.80;;;19.20;99.90;;;;;;5049969;28;20567;-70
2021/06/28 04:37:17;;;;;;;6.67;4.87;;;19.20;99.90;;;;;;5046197;28;20476;-69
2021/06/28 04:39:44;;;;;;;7.03;4.97;;;19.30;99.90;;;;;;5046596;28;20527;-68
2021/06/28 04:42:11;;;;;;;6.50;5.03;;;19.30;99.90;;;;;;5050258;28;20440;-66
2021/06/28 04:44:38;;;;;;;8.30;5.70;;;19.20;99.90;;;;;;5050037;28;20494;-65
2021/06/28 04:47:05;;;;;;;6.07;4.63;;;19.10;99.90;;;;;;5049618;28;20440;-66
2021/06/28 04:49:32;;;;;;;7.20;5.33;;;19.10;99.90;;;;;;5048868;28;20459;-66
2021/06/28 04:52:00;;;;;;;6.57;5.50;;;19.20;99.90;;;;;;5050103;28;20547;-68
2021/06/28 04:54:27;;;;;;;5.67;4.80;;;19.20;99.90;;;;;;5047265;28;20476;-68
2021/06/28 04:56:54;;;;;;;6.20;4.60;;;19.20;99.90;;;;;;5041749;28;20515;-67
2021/06/28 04:59:21;;;;;;;5.80;5.20;;;19.20;99.90;;;;;;5047908;28;20559;-69
2021/06/28 05:01:48;;;;;;;5.77;5.20;;;19.30;99.90;;;;;;5041888;28;20459;-68
2021/06/28 05:04:15;;;;;;;6.83;5.23;;;19.30;99.90;;;;;;5039953;28;20440;-67
2021/06/28 05:06:42;;;;;;;4.90;4.50;;;19.40;99.90;;;;;;5042837;28;20454;-68
2021/06/28 05:09:10;;;;;;;6.00;5.40;;;19.50;99.90;;;;;;5049108;28;20562;-67
2021/06/28 05:11:37;;;;;;;7.37;4.80;;;19.60;99.90;;;;;;5048059;28;20432;-68
2021/06/28 05:14:04;;;;;;;5.90;4.40;;;19.60;99.90;;;;;;5049003;28;20479;-67
2021/06/28 05:16:31;;;;;;;5.07;4.57;;;19.70;99.90;;;;;;5048187;28;20478;-67
2021/06/28 05:18:58;;;;;;;7.33;4.67;;;19.50;99.90;;;;;;5047775;28;20521;-67
2021/06/28 05:21:26;;;;;;;7.90;5.03;;;19.50;99.90;;;;;;5046661;28;20683;-67
2021/06/28 05:23:53;;;;;;;5.30;4.37;;;19.40;99.90;;;;;;5048385;28;20471;-67
2021/06/28 05:26:21;;;;;;;5.60;5.10;;;19.40;99.90;;;;;;5048034;28;20528;-67
2021/06/28 05:28:48;;;;;;;5.93;5.20;;;19.50;99.90;;;;;;5049224;28;20550;-67
2021/06/28 05:31:15;;;;;;;5.53;4.93;;;19.60;99.90;;;;;;5048802;28;20532;-67
2021/06/28 05:33:41;;;;;;;24.23;6.47;;;19.70;99.90;;;;;;5049770;28;20446;-67
2021/06/28 05:36:08;;;;;;;7.87;5.97;;;19.90;99.90;;;;;;5049087;28;20476;-67
2021/06/28 05:38:36;;;;;;;7.20;6.13;;;20.10;99.90;;;;;;5049173;28;21084;-67
2021/06/28 05:41:03;;;;;;;7.60;6.03;;;20.20;99.90;;;;;;5051966;28;20444;-67
2021/06/28 05:43:31;;;;;;;7.73;6.90;;;20.40;99.90;;;;;;5053226;28;20523;-66
2021/06/28 05:45:58;;;;;;;9.63;7.03;;;20.50;99.90;;;;;;5053242;28;20450;-66
2021/06/28 05:48:25;;;;;;;6.43;5.83;;;20.50;99.90;;;;;;5053338;28;20539;-66
2021/06/28 05:50:52;;;;;;;16.47;6.23;;;20.60;99.90;;;;;;5052174;28;21042;-66
2021/06/28 05:53:19;;;;;;;6.00;5.40;;;20.60;99.90;;;;;;5052966;28;20443;-67
2021/06/28 05:55:46;;;;;;;6.87;6.00;;;20.60;99.90;;;;;;5053000;28;20558;-67
2021/06/28 05:58:14;;;;;;;10.20;6.73;;;20.70;99.90;;;;;;5052324;28;20880;-65
2021/06/28 06:00:42;;;;;;;6.80;6.20;;;20.90;99.90;;;;;;5052016;28;20490;-65
2021/06/28 06:03:09;;;;;;;7.03;5.83;;;21.10;99.90;;;;;;5052650;28;20510;-65
2021/06/28 06:05:36;;;;;;;6.13;5.53;;;21.30;99.90;;;;;;5052674;28;20527;-65
2021/06/28 06:10:36;;;;;;;8.40;6.20;;;21.80;99.90;;;;;;5068123;28;20464;-74
2021/06/28 06:13:03;;;;;;;6.17;5.07;;;22.10;99.90;;;;;;5068240;28;20563;-74
2021/06/28 06:15:30;;;;;;;6.87;5.53;;;22.30;99.90;;;;;;5053634;28;20537;-73
2021/06/28 06:17:59;;;;;;;7.17;5.30;;;22.50;99.90;;;;;;5053094;28;20455;-74
2021/06/28 06:20:26;;;;;;;5.47;4.93;;;22.70;99.90;;;;;;5052552;28;20646;-74
2021/06/28 06:22:53;;;;;;;6.90;4.90;;;22.80;99.90;;;;;;5053029;28;20550;-74
2021/06/28 06:25:20;;;;;;;5.30;4.67;;;22.90;99.90;;;;;;5053055;28;20444;-74
2021/06/28 06:27:47;;;;;;;5.30;4.80;;;22.90;99.90;;;;;;5053131;28;20472;-74
2021/06/28 06:30:15;;;;;;;5.33;4.80;;;22.90;99.90;;;;;;5052616;28;20531;-74
2021/06/28 06:32:42;;;;;;;8.57;5.03;;;22.90;99.90;;;;;;5052954;28;21133;-74
2021/06/28 06:35:12;;;;;;;7.37;4.20;;;22.70;99.90;;;;;;5052706;28;20511;-73
2021/06/28 06:37:39;;;;;;;4.50;3.70;;;22.70;99.90;;;;;;5052451;28;20447;-75
2021/06/28 06:40:07;;;;;;;5.87;4.00;;;22.70;99.90;;;;;;5052125;28;20472;-75
2021/06/28 06:42:34;;;;;;;5.40;4.50;;;22.70;99.90;;;;;;5052184;28;21040;-75
2021/06/28 06:45:01;;;;;;;4.63;4.10;;;22.80;99.90;;;;;;5052033;28;20874;-75
2021/06/28 06:47:28;;;;;;;6.30;4.87;;;22.90;99.90;;;;;;5051860;28;20590;-74
2021/06/28 06:49:55;;;;;;;4.50;3.97;;;23.10;99.90;;;;;;5051175;28;20534;-75
2021/06/28 06:52:24;;;;;;;9.03;3.80;;;23.20;99.90;;;;;;5051846;28;20479;-75
2021/06/28 06:54:50;;;;;;;6.27;4.57;;;23.30;99.90;;;;;;5051869;28;20527;-75
2021/06/28 06:57:17;;;;;;;5.50;4.17;;;23.30;99.90;;;;;;5051736;28;20472;-73
2021/06/28 06:59:44;;;;;;;6.00;4.27;;;23.30;99.90;;;;;;5051199;28;20497;-75
2021/06/28 07:02:11;;;;;;;5.40;4.23;;;23.40;99.90;;;;;;5051416;28;20968;-75
2021/06/28 07:04:38;;;;;;;5.80;4.27;;;23.50;99.90;;;;;;5051344;28;20476;-72
2021/06/28 07:07:05;;;;;;;5.90;4.30;;;23.60;99.90;;;;;;5051575;28;20483;-76
2021/06/28 07:09:33;;;;;;;4.80;3.70;;;23.70;99.90;;;;;;5050906;28;20546;-74
2021/06/28 07:12:00;;;;;;;5.43;3.80;;;23.70;99.90;;;;;;5051504;28;20546;-75
2021/06/28 07:14:27;;;;;;;4.80;3.27;;;23.70;99.90;;;;;;5051099;28;20499;-76
2021/06/28 07:16:54;;;;;;;3.70;3.30;;;23.70;99.90;;;;;;5051269;28;20531;-74
2021/06/28 07:19:21;;;;;;;3.50;2.90;;;23.80;99.90;;;;;;5050827;28;20491;-72
2021/06/28 07:21:49;;;;;;;4.20;3.40;;;23.90;99.90;;;;;;5050856;28;20883;-75
2021/06/28 07:24:16;;;;;;;4.17;3.27;;;23.90;99.90;;;;;;5051049;28;20961;-73
2021/06/28 07:26:45;;;;;;;4.43;3.07;;;24.00;99.90;;;;;;5051363;28;20528;-75
2021/06/28 07:29:12;;;;;;;4.83;3.30;;;24.00;99.90;;;;;;5051137;28;20451;-73
2021/06/28 07:31:38;;;;;;;4.60;3.60;;;24.20;99.90;;;;;;5051610;28;20814;-74
2021/06/28 07:34:06;;;;;;;5.70;3.67;;;24.30;99.90;;;;;;5051058;28;20535;-75
2021/06/28 07:36:33;;;;;;;4.53;3.57;;;24.40;99.90;;;;;;5050975;28;20523;-74
2021/06/28 07:39:03;;;;;;;3.57;3.10;;;24.60;99.90;;;;;;5051110;28;20487;-76
2021/06/28 07:41:30;;;;;;;4.03;3.07;;;24.60;99.90;;;;;;5051048;28;20446;-75
2021/06/28 07:44:00;;;;;;;4.30;3.40;;;24.60;99.90;;;;;;5050710;28;20475;-75
2021/06/28 07:46:27;;;;;;;6.47;3.10;;;24.70;99.90;;;;;;5051020;28;20456;-75
2021/06/28 07:48:54;;;;;;;4.20;3.17;;;24.70;99.90;;;;;;5051205;28;20531;-69
2021/06/28 07:51:22;;;;;;;5.40;3.43;;;24.70;99.90;;;;;;5050381;28;20876;-74
2021/06/28 07:53:49;;;;;;;3.90;3.33;;;24.70;99.90;;;;;;5050691;28;20472;-74
2021/06/28 07:56:17;;;;;;;4.20;3.80;;;24.80;99.90;;;;;;5050457;28;20571;-75
2021/06/28 07:58:45;;;;;;;4.97;3.40;;;25.00;99.90;;;;;;5050860;28;20538;-75
2021/06/28 08:01:15;;;;;;;5.13;3.30;;;25.10;99.90;;;;;;5050218;28;20475;-72
2021/06/28 08:03:45;;;;;;;5.23;4.10;;;25.10;99.90;;;;;;5049684;28;20551;-75
2021/06/28 08:06:12;;;;;;;6.73;3.27;;;25.10;99.90;;;;;;5050612;28;20929;-74
2021/06/28 08:08:39;;;;;;;4.10;3.30;;;25.30;99.90;;;;;;5050520;28;20546;-73
2021/06/28 08:11:08;;;;;;;4.90;3.23;;;25.50;99.90;;;;;;5050156;28;20873;-73
2021/06/28 08:13:35;;;;;;;3.67;3.17;;;25.60;99.90;;;;;;5050260;28;20483;-73
2021/06/28 08:16:02;;;;;;;4.00;3.33;;;25.80;99.90;;;;;;5050126;28;20513;-73
2021/06/28 08:18:30;;;;;;;5.53;3.47;;;26.00;99.90;;;;;;5050585;28;20494;-73
2021/06/28 08:20:57;;;;;;;3.87;3.20;;;26.10;99.90;;;;;;5055924;28;20472;-73
2021/06/28 08:23:24;;;;;;;3.83;2.90;;;26.10;99.90;;;;;;5050416;28;20502;-73
2021/06/28 08:25:51;;;;;;;4.30;3.23;;;26.00;99.90;;;;;;5050225;28;20471;-73
2021/06/28 08:28:18;;;;;;;3.10;2.77;;;25.90;99.90;;;;;;5050576;28;20519;-74
2021/06/28 08:30:45;;;;;;;5.03;2.70;;;26.00;99.90;;;;;;5049645;28;20547;-73
2021/06/28 08:33:12;;;;;;;4.37;3.10;;;26.00;99.90;;;;;;5049888;28;20492;-73
2021/06/28 08:35:41;;;;;;;3.53;2.60;;;26.10;99.90;;;;;;5050141;28;20937;-74
2021/06/28 08:38:09;;;;;;;3.50;2.70;;;26.20;99.90;;;;;;5050588;28;20455;-75
2021/06/28 08:40:37;;;;;;;3.30;2.60;;;26.40;99.90;;;;;;5049819;28;20479;-74
2021/06/28 08:43:04;;;;;;;3.53;3.23;;;26.70;99.90;;;;;;5049665;28;20471;-74
2021/06/28 08:45:35;;;;;;;3.30;2.40;;;26.80;99.90;;;;;;5050089;28;20689;-75
2021/06/28 08:48:03;;;;;;;4.90;3.10;;;27.00;99.90;;;;;;5050271;28;21220;-73
2021/06/28 08:50:30;;;;;;;4.40;2.60;;;27.00;99.90;;;;;;5051249;28;20531;-77
2021/06/28 08:52:59;;;;;;;3.17;2.37;;;27.20;99.90;;;;;;5050809;28;20547;-74
2021/06/28 08:55:26;;;;;;;3.97;2.60;;;27.60;99.90;;;;;;5050381;28;20475;-75
2021/06/28 08:57:53;;;;;;;4.33;2.67;;;27.50;99.90;;;;;;5051061;28;20479;-72
2021/06/28 09:00:21;;;;;;;3.23;2.23;;;27.60;99.90;;;;;;5050103;28;20487;-75
2021/06/28 09:02:56;;;;;;;3.77;2.57;;;27.70;99.90;;;;;;5050455;28;20553;-75
2021/06/28 09:05:23;;;;;;;3.30;2.63;;;27.90;99.90;;;;;;5050460;28;20704;-72
2021/06/28 09:08:08;;;;;;;3.07;2.60;;;28.00;99.90;;;;;;5050759;28;20521;-75
2021/06/28 09:10:39;;;;;;;4.40;2.37;;;28.10;99.90;;;;;;5050028;28;20494;-72
2021/06/28 09:13:06;;;;;;;3.17;2.40;;;28.20;99.90;;;;;;5051648;28;20475;-74
2021/06/28 09:15:35;;;;;;;2.93;2.20;;;28.40;99.90;;;;;;5055513;28;20475;-72
2021/06/28 09:18:16;;;;;;;3.23;2.60;;;28.70;99.90;;;;;;5054833;28;20478;-75
2021/06/28 09:20:43;;;;;;;3.17;2.13;;;28.70;99.40;;;;;;5054015;28;20497;-74
2021/06/28 09:23:19;;;;;;;4.20;3.10;;;28.60;99.90;;;;;;5054364;28;20952;-75
2021/06/28 09:25:48;;;;;;;3.90;2.63;;;28.70;99.20;;;;;;5054204;28;20867;-74
2021/06/28 09:28:15;;;;;;;5.17;2.90;;;28.80;98.50;;;;;;5053873;28;20455;-76
2021/06/28 09:30:50;;;;;;;3.40;2.47;;;28.80;99.70;;;;;;5053861;28;20471;-73
2021/06/28 09:33:20;;;;;;;9.57;3.63;;;29.00;99.00;;;;;;5054277;28;20471;-75
2021/06/28 09:35:47;;;;;;;3.03;2.50;;;29.50;98.70;;;;;;5054043;28;20564;-74
2021/06/28 09:38:30;;;;;;;3.40;2.27;;;29.60;97.50;;;;;;5053831;28;20572;-74
2021/06/28 09:41:18;;;;;;;4.00;2.30;;;29.70;99.50;;;;;;5053658;28;20946;-73
2021/06/28 09:43:45;;;;;;;4.97;2.67;;;29.80;98.50;;;;;;5053487;28;20551;-75
2021/06/28 09:46:17;;;;;;;4.80;2.90;;;29.80;98.20;;;;;;5052912;28;20534;-73
2021/06/28 09:48:48;;;;;;;5.00;2.30;;;29.60;96.10;;;;;;5052993;28;20731;-72
2021/06/28 09:51:24;;;;;;;5.33;2.93;;;29.20;96.80;;;;;;5052607;28;20861;-73
2021/06/28 09:53:53;;;;;;;4.03;2.67;;;29.00;98.70;;;;;;5052905;28;20886;-74
2021/06/28 09:56:35;;;;;;;3.10;2.73;;;29.20;97.10;;;;;;5052623;28;20582;-74
2021/06/28 09:59:28;;;;;;;3.53;2.60;;;29.30;99.10;;;;;;5052666;28;20487;-73
2021/06/28 10:02:20;;;;;;;4.70;2.80;;;29.60;97.50;;;;;;5052989;28;20544;-74
2021/06/28 10:04:52;;;;;;;4.83;2.70;;;30.00;96.60;;;;;;5053231;28;20452;-75
2021/06/28 10:07:32;;;;;;;4.83;2.70;;;30.40;97.20;;;;;;5053204;28;20539;-74
2021/06/28 10:10:13;;;;;;;3.73;2.60;;;31.20;95.00;;;;;;5052480;28;20517;-74
2021/06/28 10:12:43;;;;;;;3.63;2.37;;;31.80;94.50;;;;;;5052604;28;20500;-75
2021/06/28 10:15:13;;;;;;;3.30;2.33;;;32.00;91.70;;;;;;5052322;28;20677;-75
2021/06/28 10:17:40;;;;;;;3.07;2.43;;;32.40;91.20;;;;;;5052625;28;20519;-75
2021/06/28 10:20:10;;;;;;;3.93;2.30;;;32.30;91.10;;;;;;5052486;28;20522;-74
2021/06/28 10:22:38;;;;;;;4.33;2.50;;;32.40;91.40;;;;;;5052847;28;20542;-74
2021/06/28 10:25:06;;;;;;;3.50;2.50;;;32.40;91.30;;;;;;5052007;28;20476;-74
2021/06/28 10:27:34;;;;;;;3.40;2.40;;;32.00;91.60;;;;;;5052414;28;20472;-75
2021/06/28 10:30:06;;;;;;;3.40;2.17;;;32.10;91.30;;;;;;5052101;28;20471;-73
2021/06/28 10:32:33;;;;;;;3.17;2.40;;;32.20;91.00;;;;;;5052281;28;20460;-74
2021/06/28 10:35:01;;;;;;;3.77;2.40;;;32.70;88.30;;;;;;5052228;28;20941;-75
2021/06/28 10:37:33;;;;;;;3.87;2.30;;;33.00;87.40;;;;;;5052332;28;20571;-73
2021/06/28 10:40:04;;;;;;;3.37;2.10;;;32.80;87.20;;;;;;5051612;28;20903;-74
2021/06/28 10:42:32;;;;;;;3.43;2.40;;;32.90;86.40;;;;;;5052318;28;20563;-74
2021/06/28 10:44:59;;;;;;;4.73;2.37;;;32.40;86.00;;;;;;5051977;28;20784;-75
2021/06/28 10:47:28;;;;;;;2.70;1.90;;;32.30;87.60;;;;;;5052732;28;21043;-74
2021/06/28 10:49:56;;;;;;;3.07;2.50;;;32.70;88.40;;;;;;5051861;28;20531;-73
2021/06/28 10:52:46;;;;;;;3.47;2.63;;;32.90;85.30;;;;;;5051708;28;20965;-74
2021/06/28 10:55:40;;;;;;;3.73;2.30;;;33.00;86.40;;;;;;5051626;28;20479;-74
2021/06/28 10:58:31;;;;;;;3.20;2.40;;;33.10;84.90;;;;;;5052139;28;20896;-75
2021/06/28 11:01:08;;;;;;;3.37;2.83;;;33.00;83.90;;;;;;5051922;28;20860;-73
2021/06/28 11:03:36;;;;;;;2.80;2.30;;;33.00;85.00;;;;;;5070252;22;20526;-67
2021/06/28 11:06:25;;;;;;;4.00;2.30;;;33.20;84.90;;;;;;5070136;28;20933;-67
2021/06/28 11:09:06;;;;;;;2.77;2.37;;;33.50;83.30;;;;;;5070670;28;20457;-66
2021/06/28 11:11:57;;;;;;;3.10;2.40;;;33.50;81.50;;;;;;5050984;28;20527;-67
2021/06/28 11:14:44;;;;;;;5.10;2.53;;;34.00;82.60;;;;;;5051222;28;20495;-67
2021/06/28 11:17:14;;;;;;;4.87;2.37;;;33.70;85.00;;;;;;5050705;28;20475;-66
2021/06/28 11:20:02;;;;;;;4.20;2.57;;;33.40;87.50;;;;;;5050204;28;20460;-67
2021/06/28 11:22:54;;;;;;;4.23;2.50;;;33.60;83.20;;;;;;5050869;28;20440;-67
2021/06/28 11:25:26;;;;;;;5.47;2.70;;;33.50;81.80;;;;;;5051001;28;20519;-67
2021/06/28 11:28:13;;;;;;;3.00;2.23;;;33.40;81.30;;;;;;5050509;28;20910;-66
2021/06/28 11:30:52;;;;;;;2.70;2.30;;;33.50;85.20;;;;;;5050024;28;20500;-66
2021/06/28 11:33:45;;;;;;;4.33;2.60;;;34.00;84.00;;;;;;5050895;28;20446;-66
2021/06/28 11:36:37;;;;;;;3.47;2.70;;;33.30;83.20;;;;;;5050026;28;21000;-65
2021/06/28 11:39:25;;;;;;;4.00;2.93;;;33.10;84.00;;;;;;5049456;28;20478;-65
2021/06/28 11:42:22;;;;;;;4.33;3.10;;;33.20;83.60;;;;;;5050483;28;20436;-66
2021/06/28 11:45:00;;;;;;;3.87;2.43;;;33.20;83.30;;;;;;5050198;28;20436;-65
2021/06/28 11:47:59;;;;;;;5.77;3.00;;;33.60;81.10;;;;;;5049896;28;20495;-65
2021/06/28 11:50:29;;;;;;;3.50;2.80;;;34.10;82.20;;;;;;5049468;28;20459;-66
2021/06/28 11:53:01;;;;;;;5.30;3.10;;;34.60;77.80;;;;;;5050304;28;20570;-67
2021/06/28 11:55:29;;;;;;;3.43;2.57;;;34.40;78.80;;;;;;5050458;28;20428;-65
2021/06/28 11:57:58;;;;;;;6.43;2.60;;;33.70;80.70;;;;;;5049762;28;20471;-66
2021/06/28 12:00:26;;;;;;;3.97;2.90;;;33.40;80.50;;;;;;5049388;28;20468;-66
2021/06/28 12:03:16;;;;;;;3.27;2.63;;;33.20;82.40;;;;;;5050091;28;20450;-66
2021/06/28 12:05:45;;;;;;;3.60;3.30;;;33.00;84.20;;;;;;5050207;28;20440;-66
2021/06/28 12:08:14;;;;;;;4.80;3.03;;;32.90;83.30;;;;;;5049426;28;20527;-66
2021/06/28 12:10:42;;;;;;;3.80;2.73;;;32.90;82.20;;;;;;5049124;28;20542;-66
2021/06/28 12:13:09;;;;;;;3.77;2.77;;;33.00;82.10;;;;;;5050105;28;20471;-66
2021/06/28 12:15:36;;;;;;;3.57;2.60;;;33.30;83.40;;;;;;5050105;28;20464;-66
2021/06/28 12:18:08;;;;;;;3.87;3.47;;;33.70;80.60;;;;;;5049263;28;20490;-67
2021/06/28 12:20:37;;;;;;;5.13;2.40;;;33.90;79.40;;;;;;5048844;28;20495;-66
2021/06/28 12:23:13;;;;;;;7.10;2.70;;;34.00;78.10;;;;;;5049537;28;20444;-67
2021/06/28 12:25:39;;;;;;;3.63;2.63;;;33.80;79.40;;;;;;5049713;28;20451;-67
2021/06/28 12:28:07;;;;;;;3.77;3.03;;;33.80;78.00;;;;;;5049470;28;20436;-66
2021/06/28 12:30:37;;;;;;;3.83;2.70;;;33.70;81.50;;;;;;5049056;28;20468;-67
2021/06/28 12:33:08;;;;;;;7.50;3.07;;;33.60;81.00;;;;;;5032117;28;20445;-65
2021/06/28 12:35:34;;;;;;;3.60;2.63;;;33.90;80.40;;;;;;5044920;28;20480;-66
2021/06/28 12:38:03;;;;;;;4.13;2.80;;;34.30;77.90;;;;;;5052461;28;21018;-65
2021/06/28 12:40:33;;;;;;;4.00;3.10;;;33.90;79.40;;;;;;5043579;28;20480;-71
2021/06/28 12:43:03;;;;;;;3.70;2.67;;;33.50;79.70;;;;;;5036800;28;20531;-67
2021/06/28 12:45:31;;;;;;;3.73;2.50;;;33.20;80.60;;;;;;5033133;28;20976;-67
2021/06/28 12:48:02;;;;;;;3.90;2.80;;;33.00;82.50;;;;;;5045335;28;20440;-67
2021/06/28 12:50:31;;;;;;;7.03;3.03;;;33.10;82.00;;;;;;5058067;28;20477;-68
2021/06/28 12:52:58;;;;;;;6.50;2.90;;;32.70;82.30;;;;;;5054536;28;20444;-67
2021/06/28 12:55:26;;;;;;;3.33;2.90;;;32.40;85.30;;;;;;5051041;28;20452;-70
2021/06/28 12:58:09;;;;;;;3.90;2.93;;;32.60;84.50;;;;;;5051129;28;20482;-68
2021/06/28 13:00:37;;;;;;;3.40;3.10;;;32.60;85.70;;;;;;5041252;28;20522;-68